createdAt,value
2022-11-27T00:00:38.878Z,7.80
2022-11-27T00:01:38.846Z,7.72
2022-11-27T00:02:40.702Z,7.80
2022-11-27T00:03:38.974Z,7.77
2022-11-27T00:04:38.750Z,7.87
2022-11-27T00:05:38.728Z,7.85
2022-11-27T00:06:38.678Z,7.87
2022-11-27T00:07:38.683Z,7.85
2022-11-27T00:08:38.615Z,7.85
2022-11-27T00:09:38.941Z,7.90
2022-11-27T00:10:38.549Z,7.94
2022-11-27T00:11:38.513Z,7.97
2022-11-27T00:12:38.474Z,7.95
2022-11-27T00:13:38.446Z,8.06
2022-11-27T00:14:38.404Z,8.03
2022-11-27T00:15:38.462Z,7.95
2022-11-27T00:16:38.351Z,8.01
2022-11-27T00:17:46.141Z,8.12
2022-11-27T00:18:38.291Z,8.06
2022-11-27T00:19:38.595Z,8.10
2022-11-27T00:20:38.252Z,8.10
2022-11-27T00:21:38.210Z,8.13
2022-11-27T00:22:38.219Z,8.08
2022-11-27T00:23:38.088Z,8.12
2022-11-27T00:24:38.359Z,8.15
2022-11-27T00:25:38.058Z,8.18
2022-11-27T00:26:38.533Z,8.10
2022-11-27T00:27:38.659Z,8.10
2022-11-27T00:28:38.003Z,8.06
2022-11-27T00:29:37.909Z,8.13
2022-11-27T00:30:38.547Z,8.05
2022-11-27T00:31:38.128Z,8.09
2022-11-27T00:32:37.826Z,8.05
2022-11-27T00:33:37.757Z,8.08
2022-11-27T00:34:37.901Z,8.08
2022-11-27T00:35:37.677Z,7.97
2022-11-27T00:36:37.660Z,8.06
2022-11-27T00:37:37.649Z,8.03
2022-11-27T00:38:39.179Z,8.03
2022-11-27T00:39:37.572Z,7.95
2022-11-27T00:40:37.583Z,7.97
2022-11-27T00:41:37.481Z,7.94
2022-11-27T00:42:37.455Z,8.00
2022-11-27T00:43:43.956Z,7.95
2022-11-27T00:44:37.557Z,7.85
2022-11-27T00:45:37.399Z,7.82
2022-11-27T00:46:37.352Z,7.80
2022-11-27T00:47:37.291Z,7.76
2022-11-27T00:48:37.251Z,7.79
2022-11-27T00:49:37.216Z,7.77
2022-11-27T00:50:37.176Z,7.82
2022-11-27T00:51:37.211Z,7.77
2022-11-27T00:52:37.113Z,7.75
2022-11-27T00:53:37.083Z,7.67
2022-11-27T00:54:37.340Z,7.67
2022-11-27T00:55:37.052Z,7.72
2022-11-27T00:56:36.994Z,7.69
2022-11-27T00:57:36.989Z,7.66
2022-11-27T00:58:36.955Z,7.63
2022-11-27T00:59:36.867Z,7.56
2022-11-27T01:00:36.829Z,7.63
2022-11-27T01:01:36.877Z,7.61
2022-11-27T01:02:36.819Z,7.63
2022-11-27T01:03:36.782Z,7.53
2022-11-27T01:04:36.785Z,7.47
2022-11-27T01:05:36.648Z,7.40
2022-11-27T01:06:36.627Z,7.43
2022-11-27T01:07:36.642Z,7.36
2022-11-27T01:08:36.611Z,7.33
2022-11-27T01:09:36.573Z,7.24
2022-11-27T01:10:36.499Z,7.15
2022-11-27T01:11:36.454Z,7.15
2022-11-27T01:12:36.436Z,7.03
2022-11-27T01:13:36.384Z,6.89
2022-11-27T01:14:36.388Z,6.89
2022-11-27T01:15:36.404Z,6.87
2022-11-27T01:16:38.604Z,6.84
2022-11-27T01:17:36.251Z,6.82
2022-11-27T01:18:36.231Z,6.77
2022-11-27T01:19:36.174Z,6.78
2022-11-27T01:20:36.150Z,6.84
2022-11-27T01:21:36.153Z,6.70
2022-11-27T01:22:39.552Z,6.67
2022-11-27T01:23:36.053Z,6.63
2022-11-27T01:24:36.074Z,6.60
2022-11-27T01:25:36.042Z,6.66
2022-11-27T01:26:35.958Z,6.46
2022-11-27T01:27:35.902Z,6.46
2022-11-27T01:28:35.911Z,6.44
2022-11-27T01:29:35.927Z,6.45
2022-11-27T01:30:35.875Z,6.30
2022-11-27T01:31:35.851Z,6.20
2022-11-27T01:32:35.836Z,6.17
2022-11-27T01:33:35.685Z,6.22
2022-11-27T01:34:35.684Z,6.11
2022-11-27T01:35:35.670Z,6.02
2022-11-27T01:36:35.582Z,5.97
2022-11-27T01:37:35.551Z,5.84
2022-11-27T01:38:35.501Z,5.86
2022-11-27T01:39:35.507Z,5.69
2022-11-27T01:40:35.463Z,5.53
2022-11-27T01:41:35.493Z,5.53
2022-11-27T01:42:35.379Z,5.44
2022-11-27T01:43:35.321Z,5.39
2022-11-27T01:44:35.290Z,5.35
2022-11-27T01:45:35.267Z,5.38
2022-11-27T01:46:35.262Z,5.36
2022-11-27T01:47:35.262Z,5.30
2022-11-27T01:48:35.177Z,5.38
2022-11-27T01:49:35.132Z,5.41
2022-11-27T01:50:35.074Z,5.39
2022-11-27T01:51:35.042Z,5.39
2022-11-27T01:52:35.028Z,5.35
2022-11-27T01:53:35.037Z,5.35
2022-11-27T01:54:34.987Z,5.28
2022-11-27T01:55:34.909Z,5.23
2022-11-27T01:56:34.901Z,5.20
2022-11-27T01:57:34.853Z,5.20
2022-11-27T01:58:34.793Z,5.23
2022-11-27T01:59:34.826Z,5.11
2022-11-27T02:00:34.719Z,5.08
2022-11-27T02:01:34.747Z,5.02
2022-11-27T02:02:34.697Z,4.92
2022-11-27T02:03:34.630Z,4.96
2022-11-27T02:04:34.577Z,4.92
2022-11-27T02:05:34.600Z,4.93
2022-11-27T02:06:34.505Z,4.87
2022-11-27T02:07:34.544Z,4.92
2022-11-27T02:08:34.456Z,4.86
2022-11-27T02:09:34.421Z,4.96
2022-11-27T02:10:34.351Z,4.86
2022-11-27T02:11:34.390Z,4.87
2022-11-27T02:12:34.314Z,4.87
2022-11-27T02:13:34.248Z,4.89
2022-11-27T02:14:34.248Z,4.92
2022-11-27T02:15:34.185Z,4.84
2022-11-27T02:16:34.221Z,4.80
2022-11-27T02:17:34.207Z,4.84
2022-11-27T02:18:34.086Z,4.78
2022-11-27T02:19:34.052Z,4.82
2022-11-27T02:20:34.782Z,4.71
2022-11-27T02:21:33.991Z,4.75
2022-11-27T02:22:34.025Z,4.68
2022-11-27T02:23:33.968Z,4.67
2022-11-27T02:24:33.875Z,4.66
2022-11-27T02:25:33.822Z,4.63
2022-11-27T02:26:33.785Z,4.53
2022-11-27T02:27:33.756Z,4.59
2022-11-27T02:28:33.733Z,4.53
2022-11-27T02:29:33.731Z,4.44
2022-11-27T02:30:33.690Z,4.52
2022-11-27T02:31:33.670Z,4.48
2022-11-27T02:32:33.586Z,4.45
2022-11-27T02:33:33.568Z,4.37
2022-11-27T02:34:33.554Z,4.40
2022-11-27T02:35:35.064Z,4.35
2022-11-27T02:36:33.489Z,4.26
2022-11-27T02:37:33.377Z,4.20
2022-11-27T02:38:33.441Z,4.19
2022-11-27T02:39:33.444Z,4.19
2022-11-27T02:40:33.751Z,4.08
2022-11-27T02:41:33.394Z,4.08
2022-11-27T02:42:33.292Z,4.13
2022-11-27T02:43:33.228Z,4.05
2022-11-27T02:44:34.065Z,4.05
2022-11-27T02:45:33.149Z,4.02
2022-11-27T02:46:33.255Z,4.01
2022-11-27T02:47:33.097Z,3.98
2022-11-27T02:48:32.977Z,3.98
2022-11-27T02:49:32.946Z,3.99
2022-11-27T02:50:32.928Z,3.99
2022-11-27T02:51:32.874Z,3.94
2022-11-27T02:52:32.941Z,3.95
2022-11-27T02:53:32.828Z,4.02
2022-11-27T02:54:32.767Z,3.94
2022-11-27T02:55:32.783Z,3.98
2022-11-27T02:56:32.717Z,3.95
2022-11-27T02:57:32.652Z,3.92
2022-11-27T02:58:32.765Z,3.91
2022-11-27T02:59:32.618Z,3.91
2022-11-27T03:00:32.551Z,3.92
2022-11-27T03:01:32.561Z,3.87
2022-11-27T03:02:32.513Z,3.84
2022-11-27T03:03:32.434Z,3.78
2022-11-27T03:04:32.503Z,3.86
2022-11-27T03:05:32.367Z,3.86
2022-11-27T03:06:32.324Z,3.84
2022-11-27T03:07:32.341Z,3.78
2022-11-27T03:08:32.349Z,3.87
2022-11-27T03:09:32.205Z,3.87
2022-11-27T03:10:32.189Z,3.94
2022-11-27T03:11:32.146Z,3.88
2022-11-27T03:12:32.114Z,3.91
2022-11-27T03:13:32.140Z,3.87
2022-11-27T03:14:32.100Z,3.87
2022-11-27T03:15:32.004Z,3.86
2022-11-27T03:16:32.164Z,3.91
2022-11-27T03:17:31.952Z,3.84
2022-11-27T03:18:31.905Z,3.83
2022-11-27T03:19:31.901Z,3.88
2022-11-27T03:20:31.839Z,3.73
2022-11-27T03:21:31.778Z,3.76
2022-11-27T03:22:31.765Z,3.78
2022-11-27T03:23:31.703Z,3.77
2022-11-27T03:24:31.784Z,3.63
2022-11-27T03:25:31.650Z,3.58
2022-11-27T03:26:31.601Z,3.59
2022-11-27T03:27:31.624Z,3.48
2022-11-27T03:28:34.074Z,3.51
2022-11-27T03:29:31.539Z,3.40
2022-11-27T03:30:31.906Z,3.40
2022-11-27T03:31:31.451Z,3.42
2022-11-27T03:32:31.588Z,3.47
2022-11-27T03:33:31.420Z,3.47
2022-11-27T03:34:31.294Z,3.40
2022-11-27T03:35:31.282Z,3.37
2022-11-27T03:36:31.278Z,3.41
2022-11-27T03:37:31.205Z,3.34
2022-11-27T03:38:31.171Z,3.45
2022-11-27T03:39:31.114Z,3.44
2022-11-27T03:40:31.097Z,3.29
2022-11-27T03:41:31.046Z,3.41
2022-11-27T03:42:31.084Z,3.28
2022-11-27T03:43:31.008Z,3.26
2022-11-27T03:44:30.922Z,3.42
2022-11-27T03:45:30.905Z,3.37
2022-11-27T03:46:30.992Z,3.29
2022-11-27T03:47:30.897Z,3.51
2022-11-27T03:48:30.831Z,3.40
2022-11-27T03:49:30.748Z,3.40
2022-11-27T03:50:30.713Z,3.41
2022-11-27T03:51:30.696Z,3.44
2022-11-27T03:52:30.654Z,3.41
2022-11-27T03:53:30.634Z,3.25
2022-11-27T03:54:30.625Z,3.31
2022-11-27T03:55:30.512Z,3.23
2022-11-27T03:56:30.529Z,3.28
2022-11-27T03:57:30.459Z,3.25
2022-11-27T03:58:30.437Z,3.25
2022-11-27T03:59:30.385Z,3.26
2022-11-27T04:00:30.380Z,3.34
2022-11-27T04:01:30.341Z,3.34
2022-11-27T04:02:30.341Z,3.32
2022-11-27T04:03:30.278Z,3.28
2022-11-27T04:04:30.198Z,3.28
2022-11-27T04:05:30.198Z,3.26
2022-11-27T04:06:30.209Z,3.28
2022-11-27T04:07:30.640Z,3.21
2022-11-27T04:08:30.052Z,3.26
2022-11-27T04:09:30.007Z,3.13
2022-11-27T04:10:29.970Z,3.13
2022-11-27T04:11:29.935Z,3.14
2022-11-27T04:12:29.990Z,3.19
2022-11-27T04:13:29.851Z,3.18
2022-11-27T04:14:30.580Z,3.22
2022-11-27T04:15:29.782Z,3.25
2022-11-27T04:16:29.873Z,3.29
2022-11-27T04:17:29.703Z,3.28
2022-11-27T04:18:29.788Z,3.18
2022-11-27T04:19:29.643Z,3.19
2022-11-27T04:20:29.607Z,3.23
2022-11-27T04:21:29.562Z,3.32
2022-11-27T04:22:29.592Z,3.22
2022-11-27T04:23:29.508Z,3.22
2022-11-27T04:24:29.511Z,3.25
2022-11-27T04:25:29.435Z,3.21
2022-11-27T04:26:29.384Z,3.22
2022-11-27T04:27:29.330Z,3.26
2022-11-27T04:28:29.319Z,3.22
2022-11-27T04:29:29.261Z,3.25
2022-11-27T04:30:29.293Z,3.21
2022-11-27T04:31:29.253Z,3.29
2022-11-27T04:32:29.146Z,3.18
2022-11-27T04:33:29.112Z,3.26
2022-11-27T04:34:29.146Z,3.13
2022-11-27T04:35:29.033Z,3.10
2022-11-27T04:36:29.058Z,3.14
2022-11-27T04:37:29.019Z,2.97
2022-11-27T04:38:28.929Z,3.01
2022-11-27T04:39:28.884Z,3.13
2022-11-27T04:40:28.853Z,3.04
2022-11-27T04:41:28.814Z,3.04
2022-11-27T04:42:28.851Z,3.03
2022-11-27T04:43:28.755Z,3.04
2022-11-27T04:44:28.703Z,3.11
2022-11-27T04:45:28.668Z,2.98
2022-11-27T04:46:28.637Z,3.00
2022-11-27T04:47:28.594Z,3.03
2022-11-27T04:48:28.652Z,3.04
2022-11-27T04:49:28.520Z,3.05
2022-11-27T04:50:28.555Z,3.03
2022-11-27T04:51:28.443Z,2.98
2022-11-27T04:52:28.407Z,2.92
2022-11-27T04:53:28.366Z,2.98
2022-11-27T04:54:28.394Z,3.01
2022-11-27T04:55:28.296Z,3.07
2022-11-27T04:56:28.255Z,3.03
2022-11-27T04:57:28.225Z,3.11
2022-11-27T04:58:28.190Z,3.14
2022-11-27T04:59:28.143Z,3.08
2022-11-27T05:00:28.183Z,3.21
2022-11-27T05:01:28.128Z,3.14
2022-11-27T05:02:28.066Z,3.16
2022-11-27T05:03:28.013Z,3.23
2022-11-27T05:04:27.999Z,3.22
2022-11-27T05:05:27.960Z,3.22
2022-11-27T05:06:28.082Z,3.19
2022-11-27T05:07:28.035Z,3.14
2022-11-27T05:08:28.587Z,3.16
2022-11-27T05:09:27.870Z,3.04
2022-11-27T05:10:27.797Z,2.98
2022-11-27T05:11:28.588Z,3.01
2022-11-27T05:12:27.814Z,3.00
2022-11-27T05:13:27.632Z,2.95
2022-11-27T05:14:27.588Z,3.00
2022-11-27T05:15:27.544Z,3.00
2022-11-27T05:16:27.565Z,3.01
2022-11-27T05:17:27.476Z,2.98
2022-11-27T05:18:27.508Z,3.03
2022-11-27T05:19:27.398Z,2.95
2022-11-27T05:20:27.366Z,3.01
2022-11-27T05:21:27.331Z,2.97
2022-11-27T05:22:27.368Z,2.95
2022-11-27T05:23:27.297Z,2.97
2022-11-27T05:24:27.265Z,3.01
2022-11-27T05:25:27.181Z,2.90
2022-11-27T05:26:27.135Z,3.00
2022-11-27T05:27:27.119Z,3.05
2022-11-27T05:28:27.254Z,3.04
2022-11-27T05:29:27.040Z,3.01
2022-11-27T05:30:27.046Z,3.03
2022-11-27T05:31:26.975Z,2.95
2022-11-27T05:32:26.914Z,3.10
2022-11-27T05:33:26.881Z,3.00
2022-11-27T05:34:26.927Z,3.03
2022-11-27T05:35:26.813Z,3.03
2022-11-27T05:36:26.850Z,2.98
2022-11-27T05:37:26.731Z,3.03
2022-11-27T05:38:26.759Z,2.98
2022-11-27T05:39:26.664Z,2.93
2022-11-27T05:40:26.617Z,2.93
2022-11-27T05:41:26.635Z,2.93
2022-11-27T05:42:26.609Z,2.93
2022-11-27T05:43:26.513Z,2.89
2022-11-27T05:44:26.467Z,2.87
2022-11-27T05:45:26.563Z,2.93
2022-11-27T05:46:26.504Z,2.92
2022-11-27T05:47:26.430Z,2.86
2022-11-27T05:48:26.319Z,2.87
2022-11-27T05:49:26.352Z,2.90
2022-11-27T05:50:26.258Z,2.85
2022-11-27T05:51:26.367Z,2.80
2022-11-27T05:52:26.197Z,2.77
2022-11-27T05:53:26.285Z,2.75
2022-11-27T05:54:26.161Z,2.80
2022-11-27T05:55:26.067Z,2.65
2022-11-27T05:56:26.021Z,2.61
2022-11-27T05:57:25.981Z,2.72
2022-11-27T05:58:25.951Z,2.60
2022-11-27T05:59:25.984Z,2.54
2022-11-27T06:00:25.905Z,2.50
2022-11-27T06:01:25.836Z,2.49
2022-11-27T06:02:29.335Z,2.35
2022-11-27T06:03:25.863Z,2.32
2022-11-27T06:04:25.729Z,2.31
2022-11-27T06:05:25.744Z,2.39
2022-11-27T06:06:25.650Z,2.26
2022-11-27T06:07:25.792Z,2.24
2022-11-27T06:08:25.568Z,2.31
2022-11-27T06:09:25.540Z,2.22
2022-11-27T06:10:25.564Z,2.22
2022-11-27T06:11:25.464Z,2.28
2022-11-27T06:12:25.421Z,2.26
2022-11-27T06:13:25.455Z,2.22
2022-11-27T06:14:25.371Z,2.32
2022-11-27T06:15:25.343Z,2.38
2022-11-27T06:16:25.346Z,2.35
2022-11-27T06:17:25.266Z,2.44
2022-11-27T06:18:34.253Z,2.49
2022-11-27T06:19:25.160Z,2.47
2022-11-27T06:20:25.117Z,2.49
2022-11-27T06:21:25.082Z,2.47
2022-11-27T06:22:25.042Z,2.39
2022-11-27T06:23:25.012Z,2.51
2022-11-27T06:24:25.018Z,2.47
2022-11-27T06:25:24.938Z,2.49
2022-11-27T06:26:24.955Z,2.33
2022-11-27T06:27:24.847Z,2.33
2022-11-27T06:28:24.820Z,2.42
2022-11-27T06:29:24.778Z,2.39
2022-11-27T06:30:24.817Z,2.39
2022-11-27T06:31:24.780Z,2.39
2022-11-27T06:32:24.673Z,2.28
2022-11-27T06:33:24.626Z,2.29
2022-11-27T06:34:24.587Z,2.24
2022-11-27T06:35:24.579Z,2.22
2022-11-27T06:36:24.588Z,2.22
2022-11-27T06:37:24.477Z,2.24
2022-11-27T06:38:24.451Z,2.14
2022-11-27T06:39:24.422Z,2.17
2022-11-27T06:40:24.368Z,2.11
2022-11-27T06:41:24.350Z,2.10
2022-11-27T06:42:24.418Z,2.14
2022-11-27T06:43:24.251Z,2.11
2022-11-27T06:44:24.291Z,2.10
2022-11-27T06:45:24.231Z,2.18
2022-11-27T06:46:24.138Z,2.20
2022-11-27T06:47:24.108Z,2.13
2022-11-27T06:48:24.063Z,2.26
2022-11-27T06:49:24.047Z,2.18
2022-11-27T06:50:24.058Z,2.14
2022-11-27T06:51:23.957Z,2.18
2022-11-27T06:52:23.924Z,2.11
2022-11-27T06:53:23.879Z,2.22
2022-11-27T06:54:23.845Z,2.22
2022-11-27T06:55:23.798Z,2.17
2022-11-27T06:56:23.835Z,2.22
2022-11-27T06:57:23.722Z,2.20
2022-11-27T06:58:29.300Z,2.14
2022-11-27T06:59:23.660Z,2.10
2022-11-27T07:00:23.633Z,2.15
2022-11-27T07:01:23.680Z,2.22
2022-11-27T07:02:23.606Z,2.13
2022-11-27T07:03:23.674Z,2.24
2022-11-27T07:04:23.464Z,2.18
2022-11-27T07:05:23.428Z,2.10
2022-11-27T07:06:23.392Z,2.10
2022-11-27T07:07:23.433Z,2.15
2022-11-27T07:08:23.322Z,2.14
2022-11-27T07:09:23.277Z,2.10
2022-11-27T07:10:23.292Z,2.10
2022-11-27T07:11:23.198Z,2.15
2022-11-27T07:12:23.165Z,2.08
2022-11-27T07:13:23.177Z,2.15
2022-11-27T07:14:23.155Z,2.20
2022-11-27T07:15:23.055Z,2.14
2022-11-27T07:16:23.067Z,2.15
2022-11-27T07:17:23.044Z,2.15
2022-11-27T07:18:22.940Z,2.14
2022-11-27T07:19:22.981Z,2.20
2022-11-27T07:20:22.868Z,2.17
2022-11-27T07:21:22.826Z,2.24
2022-11-27T07:22:22.797Z,2.20
2022-11-27T07:23:22.818Z,2.22
2022-11-27T07:24:22.708Z,2.26
2022-11-27T07:25:22.670Z,2.20
2022-11-27T07:26:22.645Z,2.22
2022-11-27T07:27:22.594Z,2.25
2022-11-27T07:28:22.554Z,2.13
2022-11-27T07:29:22.591Z,2.25
2022-11-27T07:30:22.567Z,2.24
2022-11-27T07:31:22.503Z,2.22
2022-11-27T07:32:22.410Z,2.13
2022-11-27T07:33:22.377Z,2.14
2022-11-27T07:34:22.344Z,2.13
2022-11-27T07:35:22.363Z,2.14
2022-11-27T07:36:22.261Z,2.06
2022-11-27T07:37:22.225Z,2.13
2022-11-27T07:38:22.185Z,2.17
2022-11-27T07:39:39.328Z,2.13
2022-11-27T07:40:22.111Z,2.22
2022-11-27T07:41:22.195Z,2.25
2022-11-27T07:42:38.782Z,2.24
2022-11-27T07:43:22.004Z,2.24
2022-11-27T07:44:21.960Z,2.28
2022-11-27T07:45:21.966Z,2.32
2022-11-27T07:46:27.801Z,2.32
2022-11-27T07:47:21.906Z,2.32
2022-11-27T07:48:21.808Z,2.39
2022-11-27T07:49:21.773Z,2.39
2022-11-27T07:50:21.741Z,2.31
2022-11-27T07:51:21.782Z,2.33
2022-11-27T07:52:21.662Z,2.42
2022-11-27T07:53:21.626Z,2.42
2022-11-27T07:54:21.577Z,2.47
2022-11-27T07:55:21.542Z,2.47
2022-11-27T07:56:21.501Z,2.60
2022-11-27T07:57:21.533Z,2.61
2022-11-27T07:58:21.439Z,2.64
2022-11-27T07:59:21.393Z,2.65
2022-11-27T08:00:21.357Z,2.72
2022-11-27T08:01:21.349Z,2.64
2022-11-27T08:02:21.343Z,2.62
2022-11-27T08:03:21.312Z,2.68
2022-11-27T08:04:21.233Z,2.72
2022-11-27T08:05:21.224Z,2.67
2022-11-27T08:06:21.140Z,2.62
2022-11-27T08:07:21.216Z,2.74
2022-11-27T08:08:21.071Z,2.77
2022-11-27T08:09:21.027Z,2.79
2022-11-27T08:10:20.983Z,2.77
2022-11-27T08:11:20.953Z,2.87
2022-11-27T08:12:20.918Z,2.83
2022-11-27T08:13:20.931Z,2.98
2022-11-27T08:14:20.826Z,2.92
2022-11-27T08:15:20.806Z,2.97
2022-11-27T08:16:20.826Z,3.00
2022-11-27T08:17:20.718Z,2.97
2022-11-27T08:18:20.684Z,3.04
2022-11-27T08:19:20.776Z,3.04
2022-11-27T08:20:20.604Z,3.01
2022-11-27T08:21:20.573Z,3.19
2022-11-27T08:22:20.531Z,3.13
2022-11-27T08:23:20.491Z,3.18
2022-11-27T08:24:20.472Z,3.14
2022-11-27T08:25:20.504Z,3.16
2022-11-27T08:26:20.380Z,3.19
2022-11-27T08:27:20.354Z,3.26
2022-11-27T08:28:20.316Z,3.28
2022-11-27T08:29:20.279Z,3.45
2022-11-27T08:30:20.234Z,3.44
2022-11-27T08:31:20.311Z,3.40
2022-11-27T08:32:20.177Z,3.37
2022-11-27T08:33:20.135Z,3.42
2022-11-27T08:34:20.085Z,3.48
2022-11-27T08:35:20.130Z,3.45
2022-11-27T08:36:20.013Z,3.55
2022-11-27T08:37:20.046Z,3.60
2022-11-27T08:38:19.947Z,3.65
2022-11-27T08:39:19.901Z,3.58
2022-11-27T08:40:19.861Z,3.63
2022-11-27T08:41:19.828Z,3.65
2022-11-27T08:42:19.834Z,3.66
2022-11-27T08:43:19.834Z,3.66
2022-11-27T08:44:19.717Z,3.59
2022-11-27T08:45:19.728Z,3.59
2022-11-27T08:46:19.701Z,3.62
2022-11-27T08:47:19.602Z,3.65
2022-11-27T08:48:19.573Z,3.76
2022-11-27T08:49:19.590Z,3.76
2022-11-27T08:50:19.487Z,3.80
2022-11-27T08:51:19.544Z,3.81
2022-11-27T08:52:19.425Z,3.78
2022-11-27T08:53:19.381Z,3.86
2022-11-27T08:54:19.368Z,3.86
2022-11-27T08:55:19.380Z,4.02
2022-11-27T08:56:19.273Z,3.95
2022-11-27T08:57:19.246Z,3.98
2022-11-27T08:58:19.205Z,4.02
2022-11-27T08:59:19.161Z,3.91
2022-11-27T09:00:22.408Z,4.02
2022-11-27T09:01:19.214Z,4.05
2022-11-27T09:02:19.050Z,4.08
2022-11-27T09:03:19.010Z,4.19
2022-11-27T09:04:19.073Z,4.30
2022-11-27T09:05:18.937Z,4.40
2022-11-27T09:06:18.915Z,4.44
2022-11-27T09:07:19.085Z,4.41
2022-11-27T09:08:18.835Z,4.44
2022-11-27T09:09:18.796Z,4.44
2022-11-27T09:10:18.759Z,4.63
2022-11-27T09:11:18.718Z,4.56
2022-11-27T09:12:18.676Z,4.71
2022-11-27T09:13:18.859Z,4.73
2022-11-27T09:14:18.617Z,4.78
2022-11-27T09:15:18.574Z,4.75
2022-11-27T09:16:18.643Z,4.70
2022-11-27T09:17:18.500Z,4.87
2022-11-27T09:18:18.463Z,4.73
2022-11-27T09:19:18.493Z,4.77
2022-11-27T09:20:18.388Z,4.78
2022-11-27T09:21:18.358Z,4.78
2022-11-27T09:22:18.314Z,4.87
2022-11-27T09:23:18.352Z,4.74
2022-11-27T09:24:18.249Z,4.87
2022-11-27T09:25:18.278Z,4.99
2022-11-27T09:26:18.162Z,4.93
2022-11-27T09:27:18.128Z,5.02
2022-11-27T09:28:18.106Z,4.93
2022-11-27T09:29:18.070Z,5.05
2022-11-27T09:30:18.025Z,5.00
2022-11-27T09:31:18.263Z,5.02
2022-11-27T09:32:18.987Z,5.14
2022-11-27T09:33:18.041Z,5.10
2022-11-27T09:34:18.049Z,5.15
2022-11-27T09:35:18.195Z,5.17
2022-11-27T09:36:17.967Z,5.25
2022-11-27T09:37:18.906Z,5.18
2022-11-27T09:38:17.869Z,5.25
2022-11-27T09:39:17.818Z,5.29
2022-11-27T09:40:17.851Z,5.28
2022-11-27T09:41:17.803Z,5.23
2022-11-27T09:42:17.804Z,5.23
2022-11-27T09:43:17.845Z,5.30
2022-11-27T09:44:17.677Z,5.30
2022-11-27T09:45:17.663Z,5.35
2022-11-27T09:46:17.724Z,5.44
2022-11-27T09:47:17.408Z,5.39
2022-11-27T09:48:17.383Z,5.46
2022-11-27T09:49:17.387Z,5.48
2022-11-27T09:50:17.304Z,5.47
2022-11-27T09:51:17.269Z,5.46
2022-11-27T09:52:17.236Z,5.62
2022-11-27T09:53:17.189Z,5.53
2022-11-27T09:54:17.153Z,5.53
2022-11-27T09:55:22.842Z,5.50
2022-11-27T09:56:17.153Z,5.53
2022-11-27T09:57:17.052Z,5.54
2022-11-27T09:58:17.032Z,5.50
2022-11-27T09:59:17.066Z,5.53
2022-11-27T10:00:16.947Z,5.57
2022-11-27T10:01:16.953Z,5.50
2022-11-27T10:02:16.963Z,5.50
2022-11-27T10:03:17.128Z,5.53
2022-11-27T10:04:16.861Z,5.59
2022-11-27T10:05:17.605Z,5.61
2022-11-27T10:06:16.720Z,5.56
2022-11-27T10:07:16.732Z,5.66
2022-11-27T10:08:16.654Z,5.68
2022-11-27T10:09:16.620Z,5.69
2022-11-27T10:10:16.658Z,5.73
2022-11-27T10:11:16.547Z,5.72
2022-11-27T10:12:16.594Z,5.83
2022-11-27T10:13:16.484Z,5.82
2022-11-27T10:14:16.448Z,5.84
2022-11-27T10:15:16.399Z,5.87
2022-11-27T10:16:16.454Z,5.82
2022-11-27T10:17:16.331Z,5.89
2022-11-27T10:18:16.307Z,5.83
2022-11-27T10:19:16.270Z,5.91
2022-11-27T10:20:16.219Z,5.91
2022-11-27T10:21:16.199Z,5.94
2022-11-27T10:22:19.621Z,5.97
2022-11-27T10:23:16.123Z,5.93
2022-11-27T10:24:16.087Z,5.99
2022-11-27T10:25:16.175Z,6.04
2022-11-27T10:26:16.023Z,5.89
2022-11-27T10:27:15.983Z,6.07
2022-11-27T10:28:16.053Z,6.01
2022-11-27T10:29:15.908Z,5.99
2022-11-27T10:30:15.898Z,6.11
2022-11-27T10:31:15.904Z,6.01
2022-11-27T10:32:46.712Z,5.98
2022-11-27T10:33:15.793Z,6.12
2022-11-27T10:34:15.807Z,6.08
2022-11-27T10:35:15.839Z,6.08
2022-11-27T10:36:15.673Z,6.14
2022-11-27T10:37:15.632Z,6.14
2022-11-27T10:38:15.602Z,6.17
2022-11-27T10:39:15.584Z,6.17
2022-11-27T10:40:15.581Z,6.17
2022-11-27T10:41:47.513Z,6.14
2022-11-27T10:42:15.470Z,6.20
2022-11-27T10:43:15.404Z,6.26
2022-11-27T10:44:15.431Z,6.30
2022-11-27T10:45:15.325Z,6.35
2022-11-27T10:46:15.449Z,6.41
2022-11-27T10:47:15.304Z,6.46
2022-11-27T10:48:15.230Z,6.33
2022-11-27T10:49:15.204Z,6.38
2022-11-27T10:50:15.172Z,6.48
2022-11-27T10:51:15.127Z,6.44
2022-11-27T10:52:15.159Z,6.54
2022-11-27T10:53:15.044Z,6.51
2022-11-27T10:54:15.008Z,6.56
2022-11-27T10:55:14.987Z,6.60
2022-11-27T10:56:14.953Z,6.63
2022-11-27T10:57:14.927Z,6.59
2022-11-27T10:58:14.933Z,6.60
2022-11-27T10:59:14.840Z,6.60
2022-11-27T11:00:14.873Z,6.60
2022-11-27T11:01:14.816Z,6.63
2022-11-27T11:02:14.786Z,6.75
2022-11-27T11:03:14.695Z,6.81
2022-11-27T11:04:36.384Z,6.84
2022-11-27T11:05:37.363Z,6.79
2022-11-27T11:06:23.206Z,6.93
2022-11-27T11:07:14.597Z,7.05
2022-11-27T11:08:14.530Z,7.11
2022-11-27T11:09:14.472Z,7.11
2022-11-27T11:10:14.525Z,7.15
2022-11-27T11:11:14.427Z,7.28
2022-11-27T11:12:14.382Z,7.32
2022-11-27T11:13:14.360Z,7.25
2022-11-27T11:14:14.317Z,7.35
2022-11-27T11:15:14.266Z,7.35
2022-11-27T11:16:15.067Z,7.36
2022-11-27T11:17:14.228Z,7.32
2022-11-27T11:18:14.170Z,7.45
2022-11-27T11:19:14.151Z,7.45
2022-11-27T11:20:14.098Z,7.43
2022-11-27T11:21:14.082Z,7.51
2022-11-27T11:22:14.849Z,7.43
2022-11-27T11:23:13.996Z,7.42
2022-11-27T11:24:13.977Z,7.53
2022-11-27T11:25:13.940Z,7.53
2022-11-27T11:26:13.912Z,7.60
2022-11-27T11:27:13.865Z,7.53
2022-11-27T11:28:13.898Z,7.47
2022-11-27T11:29:13.790Z,7.57
2022-11-27T11:30:13.746Z,7.51
2022-11-27T11:31:13.791Z,7.61
2022-11-27T11:32:13.869Z,7.66
2022-11-27T11:33:13.669Z,7.60
2022-11-27T11:34:13.653Z,7.53
2022-11-27T11:35:13.581Z,7.54
2022-11-27T11:36:13.560Z,7.45
2022-11-27T11:37:13.503Z,7.56
2022-11-27T11:38:13.466Z,7.51
2022-11-27T11:39:13.450Z,7.66
2022-11-27T11:40:16.210Z,7.66
2022-11-27T11:41:13.378Z,7.70
2022-11-27T11:42:13.329Z,7.76
2022-11-27T11:43:13.305Z,7.75
2022-11-27T11:44:13.262Z,7.73
2022-11-27T11:45:13.235Z,7.82
2022-11-27T11:46:13.395Z,7.83
2022-11-27T11:47:13.155Z,7.87
2022-11-27T11:48:13.176Z,7.91
2022-11-27T11:49:13.095Z,7.93
2022-11-27T11:50:13.057Z,8.05
2022-11-27T11:51:13.010Z,8.06
2022-11-27T11:52:13.067Z,8.06
2022-11-27T11:53:12.996Z,8.06
2022-11-27T11:54:12.943Z,8.08
2022-11-27T11:55:12.885Z,8.09
2022-11-27T11:56:12.853Z,8.18
2022-11-27T11:57:12.879Z,8.23
2022-11-27T11:58:12.851Z,8.26
2022-11-27T11:59:12.720Z,8.42
2022-11-27T12:00:12.726Z,8.45
2022-11-27T12:01:26.348Z,8.49
2022-11-27T12:02:12.675Z,8.56
2022-11-27T12:03:12.602Z,8.60
2022-11-27T12:04:12.823Z,8.63
2022-11-27T12:05:12.585Z,8.66
2022-11-27T12:06:12.514Z,8.79
2022-11-27T12:07:12.483Z,8.73
2022-11-27T12:08:12.430Z,8.89
2022-11-27T12:09:12.409Z,9.02
2022-11-27T12:10:12.417Z,9.04
2022-11-27T12:11:12.369Z,9.06
2022-11-27T12:12:12.292Z,9.18
2022-11-27T12:13:12.276Z,9.18
2022-11-27T12:14:12.256Z,9.14
2022-11-27T12:15:12.200Z,9.16
2022-11-27T12:16:12.268Z,9.22
2022-11-27T12:17:12.153Z,9.19
2022-11-27T12:18:12.092Z,9.18
2022-11-27T12:19:12.055Z,9.32
2022-11-27T12:20:12.090Z,9.28
2022-11-27T12:21:11.982Z,9.36
2022-11-27T12:22:12.018Z,9.31
2022-11-27T12:23:11.921Z,9.29
2022-11-27T12:24:11.892Z,9.29
2022-11-27T12:25:11.857Z,9.26
2022-11-27T12:26:11.829Z,9.28
2022-11-27T12:27:11.780Z,9.29
2022-11-27T12:28:11.819Z,9.31
2022-11-27T12:29:11.716Z,9.28
2022-11-27T12:30:11.691Z,9.31
2022-11-27T12:31:11.744Z,9.29
2022-11-27T12:32:11.695Z,9.28
2022-11-27T12:33:11.575Z,9.22
2022-11-27T12:34:11.608Z,9.31
2022-11-27T12:35:11.520Z,9.21
2022-11-27T12:36:11.543Z,9.29
2022-11-27T12:37:14.140Z,9.28
2022-11-27T12:38:11.415Z,9.28
2022-11-27T12:39:11.375Z,9.29
2022-11-27T12:40:11.391Z,9.28
2022-11-27T12:41:11.309Z,9.26
2022-11-27T12:42:11.274Z,9.28
2022-11-27T12:43:11.243Z,9.28
2022-11-27T12:44:11.204Z,9.29
2022-11-27T12:45:11.168Z,9.26
2022-11-27T12:46:11.349Z,9.21
2022-11-27T12:47:11.108Z,9.23
2022-11-27T12:48:11.089Z,9.22
2022-11-27T12:49:11.126Z,9.21
2022-11-27T12:50:11.007Z,9.22
2022-11-27T12:51:10.969Z,9.08
2022-11-27T12:52:11.082Z,9.00
2022-11-27T12:53:10.906Z,9.00
2022-11-27T12:54:10.867Z,8.99
2022-11-27T12:55:10.884Z,8.97
2022-11-27T12:56:10.807Z,9.00
2022-11-27T12:57:10.770Z,9.00
2022-11-27T12:58:10.946Z,8.95
2022-11-27T12:59:10.704Z,8.97
2022-11-27T13:00:10.674Z,8.92
2022-11-27T13:01:10.734Z,8.99
2022-11-27T13:02:10.674Z,8.95
2022-11-27T13:03:10.862Z,9.00
2022-11-27T13:04:10.586Z,8.97
2022-11-27T13:05:10.496Z,8.94
2022-11-27T13:06:10.459Z,8.84
2022-11-27T13:07:10.554Z,8.85
2022-11-27T13:08:10.472Z,8.81
2022-11-27T13:09:10.431Z,8.66
2022-11-27T13:10:10.335Z,8.76
2022-11-27T13:11:10.294Z,8.71
2022-11-27T13:12:10.301Z,8.67
2022-11-27T13:13:10.251Z,8.63
2022-11-27T13:14:10.200Z,8.56
2022-11-27T13:15:10.214Z,8.55
2022-11-27T13:16:10.168Z,8.56
2022-11-27T13:17:10.091Z,8.55
2022-11-27T13:18:10.055Z,8.58